createdAt,value
2023-02-06T00:01:22.317Z,17.98
2023-02-06T00:03:49.233Z,14.90
2023-02-06T00:06:16.159Z,17.38
2023-02-06T00:08:43.193Z,21.45
2023-02-06T00:11:13.267Z,20.60
2023-02-06T00:13:40.216Z,17.58
2023-02-06T00:16:16.107Z,22.88
2023-02-06T00:18:42.861Z,21.17
2023-02-06T00:21:09.461Z,14.45
2023-02-06T00:23:36.186Z,21.40
2023-02-06T00:26:02.791Z,18.35
2023-02-06T00:28:29.393Z,20.60
2023-02-06T00:30:56.154Z,19.58
2023-02-06T00:33:22.784Z,17.70
2023-02-06T00:35:49.422Z,18.75
2023-02-06T00:38:16.029Z,23.70
2023-02-06T00:40:43.329Z,19.70
2023-02-06T00:43:10.122Z,19.58
2023-02-06T00:45:36.918Z,19.42
2023-02-06T00:48:03.811Z,20.15
2023-02-06T00:50:30.581Z,17.92
2023-02-06T00:52:57.279Z,18.00
2023-02-06T00:55:23.919Z,19.85
2023-02-06T00:57:50.566Z,14.32
2023-02-06T01:00:17.533Z,20.17
2023-02-06T01:02:44.487Z,16.40
2023-02-06T01:05:11.267Z,20.25
2023-02-06T01:07:39.682Z,19.20
2023-02-06T01:10:08.448Z,16.17
2023-02-06T01:12:36.919Z,15.15
2023-02-06T01:15:05.778Z,17.35
2023-02-06T01:17:33.958Z,16.70
2023-02-06T01:20:01.118Z,13.85
2023-02-06T01:22:28.145Z,17.77
2023-02-06T01:24:54.856Z,20.67
2023-02-06T01:27:21.496Z,16.08
2023-02-06T01:29:48.103Z,15.15
2023-02-06T01:32:14.757Z,15.43
2023-02-06T01:34:41.997Z,18.25
2023-02-06T01:37:08.829Z,23.77
2023-02-06T01:39:35.581Z,12.77
2023-02-06T01:42:03.235Z,15.00
2023-02-06T01:44:32.378Z,17.58
2023-02-06T01:46:59.114Z,17.83
2023-02-06T01:49:33.733Z,10.05
2023-02-06T01:52:26.059Z,13.40
2023-02-06T01:54:57.969Z,12.10
2023-02-06T01:57:26.173Z,17.23
2023-02-06T01:59:57.908Z,12.35
2023-02-06T02:02:26.987Z,14.57
2023-02-06T02:04:56.375Z,15.50
2023-02-06T02:07:27.213Z,13.13
2023-02-06T02:09:54.402Z,15.60
2023-02-06T02:12:21.242Z,14.95
2023-02-06T02:14:50.369Z,7.72
2023-02-06T02:17:48.992Z,15.23
2023-02-06T02:20:53.574Z,9.15
2023-02-06T02:23:53.378Z,11.48
2023-02-06T02:26:36.478Z,10.40
2023-02-06T02:29:28.749Z,12.50
2023-02-06T02:32:19.394Z,12.18
2023-02-06T02:35:15.905Z,14.73
2023-02-06T02:38:03.719Z,13.57
2023-02-06T02:40:50.846Z,13.05
2023-02-06T02:43:39.172Z,12.35
2023-02-06T02:46:18.960Z,16.13
2023-02-06T02:48:49.045Z,10.45
2023-02-06T02:51:17.295Z,11.40
2023-02-06T02:53:44.040Z,13.45
2023-02-06T02:56:16.920Z,11.35
2023-02-06T02:58:45.902Z,13.95
2023-02-06T03:01:17.494Z,15.52
2023-02-06T03:03:47.666Z,17.77
2023-02-06T03:06:42.684Z,10.15
2023-02-06T03:09:15.683Z,8.95
2023-02-06T03:11:49.653Z,13.48
2023-02-06T03:14:27.851Z,11.98
2023-02-06T03:17:19.537Z,13.98
2023-02-06T03:19:52.733Z,17.60
2023-02-06T03:22:20.157Z,11.85
2023-02-06T03:24:49.301Z,15.63
2023-02-06T03:27:17.864Z,11.45
2023-02-06T03:29:49.584Z,15.38
2023-02-06T03:32:29.881Z,11.48
2023-02-06T03:35:29.807Z,15.02
2023-02-06T03:37:56.720Z,17.42
2023-02-06T03:40:24.958Z,14.73
2023-02-06T03:42:58.589Z,10.95
2023-02-06T03:45:37.015Z,10.63
2023-02-06T03:48:09.539Z,7.97
2023-02-06T03:50:37.432Z,8.05
2023-02-06T03:53:04.989Z,19.90
2023-02-06T03:55:31.697Z,13.32
2023-02-06T03:58:12.133Z,8.77
2023-02-06T04:00:40.918Z,11.07
2023-02-06T04:03:10.209Z,10.48
2023-02-06T04:05:38.345Z,12.40
2023-02-06T04:08:05.882Z,12.05
2023-02-06T04:10:32.625Z,15.88
2023-02-06T04:12:59.227Z,16.58
2023-02-06T04:15:25.953Z,9.50
2023-02-06T04:18:00.602Z,11.85
2023-02-06T04:20:28.589Z,12.80
2023-02-06T04:22:55.336Z,11.82
2023-02-06T04:25:22.033Z,10.27
2023-02-06T04:27:48.730Z,16.52
2023-02-06T04:30:17.337Z,16.83
2023-02-06T04:32:44.312Z,14.00
2023-02-06T04:35:11.801Z,13.55
2023-02-06T04:37:38.968Z,13.18
2023-02-06T04:40:06.105Z,15.43
2023-02-06T04:42:32.781Z,15.65
2023-02-06T04:44:59.446Z,11.02
2023-02-06T04:47:26.115Z,11.30
2023-02-06T04:49:52.931Z,13.88
2023-02-06T04:52:19.597Z,13.85
2023-02-06T04:54:46.237Z,14.02
2023-02-06T04:57:12.874Z,9.40
2023-02-06T04:59:39.473Z,11.63
2023-02-06T05:02:06.143Z,14.85
2023-02-06T05:04:32.908Z,12.25
2023-02-06T05:06:59.669Z,13.13
2023-02-06T05:09:26.421Z,14.63
2023-02-06T05:11:53.014Z,16.48
2023-02-06T05:14:19.681Z,16.85
2023-02-06T05:16:46.300Z,13.52
2023-02-06T05:19:13.029Z,18.45
2023-02-06T05:21:39.692Z,12.77
2023-02-06T05:24:06.465Z,13.13
2023-02-06T05:26:33.102Z,10.65
2023-02-06T05:28:59.766Z,13.02
2023-02-06T05:31:26.615Z,18.85
2023-02-06T05:33:55.204Z,12.93
2023-02-06T05:36:22.868Z,11.90
2023-02-06T05:38:51.068Z,12.10
2023-02-06T05:41:18.364Z,11.38
2023-02-06T05:43:45.022Z,17.70
2023-02-06T05:46:13.074Z,14.07
2023-02-06T05:48:40.755Z,15.32
2023-02-06T05:51:07.458Z,11.43
2023-02-06T05:53:34.141Z,12.15
2023-02-06T05:56:00.789Z,9.40
2023-02-06T05:58:27.463Z,14.30
2023-02-06T06:00:54.109Z,14.23
2023-02-06T06:03:20.708Z,17.55
2023-02-06T06:05:47.427Z,14.38
2023-02-06T06:08:15.479Z,16.75
2023-02-06T06:10:42.432Z,14.50
2023-02-06T06:13:09.103Z,12.27
2023-02-06T06:15:35.904Z,12.10
2023-02-06T06:18:02.992Z,11.88
2023-02-06T06:20:29.649Z,13.15
2023-02-06T06:22:56.256Z,13.60
2023-02-06T06:25:22.879Z,13.30
2023-02-06T06:27:49.558Z,13.68
2023-02-06T06:30:16.403Z,13.85
2023-02-06T06:32:43.086Z,8.80
2023-02-06T06:35:10.563Z,11.70
2023-02-06T06:37:37.341Z,11.63
2023-02-06T06:40:04.467Z,15.32
2023-02-06T06:42:31.848Z,9.93
2023-02-06T06:44:58.793Z,9.43
2023-02-06T06:47:25.611Z,13.02
2023-02-06T06:49:52.259Z,10.25
2023-02-06T06:52:25.035Z,10.30
2023-02-06T06:54:53.221Z,12.60
2023-02-06T06:57:21.322Z,9.07
2023-02-06T06:59:48.021Z,13.13
2023-02-06T07:02:15.199Z,9.90
2023-02-06T07:04:42.084Z,11.68
2023-02-06T07:07:09.089Z,10.15
2023-02-06T07:09:36.355Z,13.07
2023-02-06T07:12:03.223Z,11.57
2023-02-06T07:14:29.870Z,10.77
2023-02-06T07:16:56.688Z,12.73
2023-02-06T07:19:23.518Z,8.15
2023-02-06T07:21:50.324Z,10.93
2023-02-06T07:24:16.971Z,9.35
2023-02-06T07:26:43.627Z,14.73
2023-02-06T07:29:10.318Z,13.95
2023-02-06T07:31:37.063Z,15.95
2023-02-06T07:34:03.973Z,8.50
2023-02-06T07:36:30.726Z,13.77
2023-02-06T07:38:57.489Z,13.20
2023-02-06T07:41:24.338Z,9.45
2023-02-06T07:43:50.957Z,11.10
2023-02-06T07:46:17.782Z,12.45
2023-02-06T07:48:44.438Z,10.27
2023-02-06T07:51:11.229Z,11.02
2023-02-06T07:53:38.238Z,10.40
2023-02-06T07:56:13.563Z,11.95
2023-02-06T07:58:40.631Z,14.55
2023-02-06T08:01:07.414Z,15.93
2023-02-06T08:03:35.328Z,14.80
2023-02-06T08:06:11.720Z,14.95
2023-02-06T08:08:39.221Z,9.88
2023-02-06T08:11:15.058Z,8.35
2023-02-06T08:13:43.273Z,8.27
2023-02-06T08:16:16.674Z,14.52
2023-02-06T08:18:43.647Z,14.43
2023-02-06T08:21:12.986Z,14.90
2023-02-06T08:23:39.894Z,15.18
2023-02-06T08:26:13.424Z,8.45
2023-02-06T08:28:42.280Z,10.88
2023-02-06T08:31:31.445Z,12.10
2023-02-06T08:33:59.300Z,8.95
2023-02-06T08:36:27.643Z,21.17
2023-02-06T08:38:54.296Z,16.60
2023-02-06T08:41:24.668Z,10.18
2023-02-06T08:43:54.114Z,13.30
2023-02-06T08:46:23.358Z,12.52
2023-02-06T08:48:56.173Z,17.85
2023-02-06T08:51:22.935Z,13.90
2023-02-06T08:53:49.732Z,14.70
2023-02-06T08:56:17.026Z,13.68
2023-02-06T08:58:43.857Z,12.95
2023-02-06T09:01:19.454Z,11.98
2023-02-06T09:03:47.086Z,10.95
2023-02-06T09:06:15.383Z,12.25
2023-02-06T09:08:43.206Z,10.55
2023-02-06T09:11:16.437Z,14.50
2023-02-06T09:13:44.897Z,13.43
2023-02-06T09:16:12.046Z,16.98
2023-02-06T09:18:39.685Z,22.88
2023-02-06T09:21:11.478Z,16.52
2023-02-06T09:23:44.175Z,16.10
2023-02-06T09:26:12.391Z,16.48
2023-02-06T09:28:39.129Z,16.90
2023-02-06T09:31:08.106Z,13.10
2023-02-06T09:33:35.293Z,15.55
2023-02-06T09:36:07.596Z,17.85
2023-02-06T09:38:35.674Z,12.95
2023-02-06T09:41:06.684Z,19.67
2023-02-06T09:43:36.317Z,21.33
2023-02-06T09:46:10.157Z,13.20
2023-02-06T09:48:40.571Z,18.63
2023-02-06T09:51:15.529Z,9.70
2023-02-06T09:54:05.621Z,9.93
2023-02-06T09:56:50.294Z,12.98
2023-02-06T09:59:34.438Z,7.20
2023-02-06T10:02:19.067Z,17.13
2023-02-06T10:05:04.934Z,15.13
2023-02-06T10:08:16.009Z,10.30
2023-02-06T10:10:55.219Z,9.50
2023-02-06T10:13:56.662Z,10.55
2023-02-06T10:16:32.013Z,12.50
2023-02-06T10:19:09.171Z,12.68
2023-02-06T10:21:38.131Z,8.20
2023-02-06T10:24:14.459Z,6.20
2023-02-06T10:26:41.777Z,7.97
2023-02-06T10:29:17.263Z,8.60
2023-02-06T10:32:12.738Z,11.57
2023-02-06T10:35:05.638Z,9.98
2023-02-06T10:37:52.453Z,8.93
2023-02-06T10:40:43.308Z,10.55
2023-02-06T10:43:39.040Z,12.40
2023-02-06T10:46:23.627Z,6.30
2023-02-06T10:49:04.824Z,8.20
2023-02-06T10:51:38.068Z,10.13
2023-02-06T10:54:31.341Z,5.80
2023-02-06T10:57:00.261Z,8.27
2023-02-06T10:59:29.837Z,9.93
2023-02-06T11:02:21.898Z,14.63
2023-02-06T11:04:51.745Z,3.40
2023-02-06T11:07:30.829Z,15.05
2023-02-06T11:09:57.529Z,12.63
2023-02-06T11:12:38.213Z,9.38
2023-02-06T11:15:32.646Z,8.05
2023-02-06T11:18:02.212Z,5.13
2023-02-06T11:20:32.891Z,7.00
2023-02-06T11:23:20.542Z,9.00
2023-02-06T11:28:20.836Z,14.82
2023-02-06T11:30:58.233Z,12.95
2023-02-06T11:33:39.913Z,7.40
2023-02-06T11:36:20.680Z,4.45
2023-02-06T11:39:01.469Z,14.27
2023-02-06T11:41:30.727Z,10.93
2023-02-06T11:44:02.806Z,9.02
2023-02-06T11:46:35.722Z,6.43
2023-02-06T11:49:06.402Z,9.63
2023-02-06T11:52:00.115Z,7.38
2023-02-06T11:54:29.977Z,9.32
2023-02-06T11:56:58.784Z,11.02
2023-02-06T11:59:27.472Z,7.60
2023-02-06T12:01:54.996Z,14.80
2023-02-06T12:04:30.508Z,5.60
2023-02-06T12:07:24.809Z,6.43
2023-02-06T12:09:51.984Z,5.28
2023-02-06T12:12:30.696Z,10.52
2023-02-06T12:15:23.582Z,9.52
2023-02-06T12:18:16.015Z,12.27
2023-02-06T12:20:53.139Z,11.55
2023-02-06T12:24:02.558Z,10.40
2023-02-06T12:26:33.669Z,12.80
2023-02-06T12:29:08.217Z,14.00
2023-02-06T12:31:53.930Z,8.15
2023-02-06T12:34:25.399Z,13.02
2023-02-06T12:37:21.609Z,6.40
2023-02-06T12:39:49.104Z,7.22
2023-02-06T12:42:37.120Z,9.52
2023-02-06T12:45:26.124Z,13.63
2023-02-06T12:48:00.323Z,7.82
2023-02-06T12:50:32.773Z,6.38
2023-02-06T12:53:02.931Z,8.05
2023-02-06T12:55:35.322Z,12.00
2023-02-06T12:58:04.705Z,8.07
2023-02-06T13:00:45.705Z,8.40
2023-02-06T13:03:30.162Z,11.70
2023-02-06T13:06:17.846Z,7.97
2023-02-06T13:08:56.171Z,11.68
2023-02-06T13:11:40.958Z,9.52
2023-02-06T13:14:07.597Z,11.02
2023-02-06T13:16:45.190Z,10.50
2023-02-06T13:19:26.579Z,14.82
2023-02-06T13:22:13.635Z,13.85
2023-02-06T13:24:42.284Z,14.05
2023-02-06T13:27:09.623Z,14.13
2023-02-06T13:29:42.849Z,17.00
2023-02-06T13:32:14.828Z,8.13
2023-02-06T13:34:44.516Z,14.90
2023-02-06T13:37:21.948Z,7.30
2023-02-06T13:40:09.343Z,5.97
2023-02-06T13:45:20.101Z,9.20
2023-02-06T13:48:15.426Z,9.60
2023-02-06T13:50:47.783Z,13.73
2023-02-06T13:53:20.524Z,11.65
2023-02-06T13:56:10.142Z,7.40
2023-02-06T13:58:41.084Z,14.70
2023-02-06T14:01:15.281Z,14.38
2023-02-06T14:03:49.010Z,9.35
2023-02-06T14:06:51.993Z,6.13
2023-02-06T14:10:03.710Z,8.30
2023-02-06T14:12:53.305Z,10.90
2023-02-06T14:15:41.486Z,10.38
2023-02-06T14:18:36.243Z,8.82
2023-02-06T14:21:24.599Z,18.27
2023-02-06T14:24:01.842Z,10.30
2023-02-06T14:26:43.571Z,11.00
2023-02-06T14:29:37.490Z,11.43
2023-02-06T14:32:10.301Z,10.60
2023-02-06T14:34:56.085Z,11.43
2023-02-06T14:38:00.291Z,7.65
2023-02-06T14:40:31.171Z,13.55
2023-02-06T14:43:01.833Z,14.13
2023-02-06T14:45:42.135Z,9.73
2023-02-06T14:48:21.215Z,12.77
2023-02-06T14:50:52.816Z,14.57
2023-02-06T14:53:32.129Z,23.00
2023-02-06T14:56:12.460Z,8.82
2023-02-06T14:58:39.114Z,16.15
2023-02-06T15:01:21.590Z,11.05
2023-02-06T15:03:52.569Z,10.77
2023-02-06T15:06:33.144Z,16.30
2023-02-06T15:09:00.553Z,15.43
2023-02-06T15:11:32.812Z,10.77
2023-02-06T15:14:19.729Z,14.63
2023-02-06T15:16:47.757Z,11.82
2023-02-06T15:19:21.178Z,8.00
2023-02-06T15:21:49.145Z,7.35
2023-02-06T15:24:24.847Z,14.57
2023-02-06T15:27:17.543Z,19.35
2023-02-06T15:29:49.706Z,8.13
2023-02-06T15:32:27.304Z,19.85
2023-02-06T15:34:54.206Z,12.00
2023-02-06T15:37:34.367Z,9.52
2023-02-06T15:40:18.947Z,10.40
2023-02-06T15:42:50.142Z,15.73
2023-02-06T15:45:29.530Z,11.13
2023-02-06T15:47:56.918Z,8.82
2023-02-06T15:50:27.645Z,17.67
2023-02-06T15:52:55.762Z,16.48
2023-02-06T15:55:25.527Z,8.25
2023-02-06T15:57:54.486Z,10.55
2023-02-06T16:00:34.973Z,7.65
2023-02-06T16:03:06.335Z,11.38
2023-02-06T16:05:36.053Z,13.30
2023-02-06T16:08:06.310Z,17.70
2023-02-06T16:10:38.329Z,13.23
2023-02-06T16:13:19.605Z,8.98
2023-02-06T16:16:21.109Z,15.15
2023-02-06T16:18:52.033Z,12.07
2023-02-06T16:21:18.668Z,10.90
2023-02-06T16:23:45.289Z,16.88
2023-02-06T16:26:17.231Z,13.27
2023-02-06T16:29:02.107Z,7.95
2023-02-06T16:31:31.355Z,13.20
2023-02-06T16:34:03.381Z,12.07
2023-02-06T16:36:32.369Z,10.35
2023-02-06T16:39:04.625Z,8.23
2023-02-06T16:41:34.341Z,14.40
2023-02-06T16:44:02.542Z,10.10
2023-02-06T16:46:29.810Z,15.10
2023-02-06T16:48:59.134Z,10.63
2023-02-06T16:51:29.552Z,10.13
2023-02-06T16:54:00.129Z,6.85
2023-02-06T16:56:26.949Z,8.13
2023-02-06T16:58:53.618Z,9.07
2023-02-06T17:01:28.768Z,5.97
2023-02-06T17:03:55.980Z,8.38
2023-02-06T17:06:29.217Z,11.80
2023-02-06T17:08:58.880Z,12.43
2023-02-06T17:11:25.570Z,7.75
2023-02-06T17:13:52.400Z,15.07
2023-02-06T17:16:21.840Z,7.63
2023-02-06T17:18:49.447Z,14.80
2023-02-06T17:21:18.714Z,15.98
2023-02-06T17:23:46.470Z,9.15
2023-02-06T17:26:16.018Z,12.95
2023-02-06T17:28:43.002Z,11.10
2023-02-06T17:31:10.112Z,9.13
2023-02-06T17:33:36.914Z,10.15
2023-02-06T17:36:07.580Z,12.82
2023-02-06T17:38:34.541Z,10.63
2023-02-06T17:41:01.274Z,10.30
2023-02-06T17:43:29.630Z,7.18
2023-02-06T17:45:56.347Z,11.68
2023-02-06T17:48:23.081Z,8.50
2023-02-06T17:50:49.740Z,12.45
2023-02-06T17:53:16.567Z,8.32
2023-02-06T17:55:45.087Z,16.10
2023-02-06T17:58:11.762Z,13.80
2023-02-06T18:00:39.222Z,8.75
2023-02-06T18:03:06.077Z,18.48
2023-02-06T18:05:32.871Z,10.88
2023-02-06T18:07:59.519Z,9.60
2023-02-06T18:10:26.818Z,6.90
2023-02-06T18:12:53.826Z,13.07
2023-02-06T18:15:21.044Z,8.48
2023-02-06T18:17:47.701Z,10.63
2023-02-06T18:20:16.349Z,13.88
2023-02-06T18:22:43.078Z,16.90
2023-02-06T18:25:12.808Z,12.18
2023-02-06T18:27:40.393Z,12.40
2023-02-06T18:30:08.623Z,13.48
2023-02-06T18:32:37.908Z,10.82
2023-02-06T18:35:06.265Z,10.50
2023-02-06T18:37:36.150Z,11.23
2023-02-06T18:40:03.923Z,9.57
2023-02-06T18:42:49.697Z,12.27
2023-02-06T18:45:17.640Z,13.07
2023-02-06T18:47:44.791Z,12.82
2023-02-06T18:50:12.513Z,15.05
2023-02-06T18:52:39.488Z,11.88
2023-02-06T18:55:08.159Z,10.93
2023-02-06T18:57:35.678Z,16.08
2023-02-06T19:00:06.985Z,13.45
2023-02-06T19:02:33.709Z,17.38
2023-02-06T19:05:00.934Z,15.57
2023-02-06T19:07:28.255Z,12.77
2023-02-06T19:09:59.321Z,11.80
2023-02-06T19:12:30.003Z,16.30
2023-02-06T19:14:58.793Z,12.65
2023-02-06T19:17:26.756Z,17.20
2023-02-06T19:19:53.983Z,15.90
2023-02-06T19:22:20.702Z,10.63
2023-02-06T19:24:47.404Z,11.55
2023-02-06T19:27:14.094Z,14.50
2023-02-06T19:29:40.744Z,16.92
2023-02-06T19:32:09.537Z,19.73
2023-02-06T19:34:41.085Z,15.93
2023-02-06T19:37:09.723Z,15.82
2023-02-06T19:39:38.069Z,14.27
2023-02-06T19:42:06.729Z,15.98
2023-02-06T19:44:34.573Z,20.05
2023-02-06T19:47:01.831Z,18.65
2023-02-06T19:49:28.903Z,14.27
2023-02-06T19:51:55.870Z,16.10
2023-02-06T19:54:22.544Z,16.05
2023-02-06T19:56:49.246Z,14.63
2023-02-06T19:59:19.899Z,22.95
2023-02-06T20:01:57.258Z,20.60
2023-02-06T20:04:28.510Z,16.02
2023-02-06T20:06:55.939Z,21.77
2023-02-06T20:09:24.150Z,19.05
2023-02-06T20:11:51.837Z,19.92
2023-02-06T20:14:20.222Z,21.85
2023-02-06T20:16:47.698Z,21.65
2023-02-06T20:19:20.805Z,15.50
2023-02-06T20:21:50.885Z,16.15
2023-02-06T20:24:21.860Z,16.95
2023-02-06T20:26:51.405Z,22.10
2023-02-06T20:29:25.521Z,20.92
2023-02-06T20:31:53.072Z,16.00
2023-02-06T20:34:21.761Z,25.00
2023-02-06T20:36:50.226Z,17.75
2023-02-06T20:39:17.889Z,19.80
2023-02-06T20:41:45.909Z,21.70
2023-02-06T20:44:13.910Z,27.55
2023-02-06T20:46:41.680Z,20.70
2023-02-06T20:49:14.394Z,31.00
2023-02-06T20:51:41.052Z,23.27
2023-02-06T20:54:07.703Z,32.92
2023-02-06T20:56:34.683Z,24.00
2023-02-06T20:59:01.844Z,24.55
2023-02-06T21:01:30.742Z,26.23
2023-02-06T21:04:03.651Z,24.55
2023-02-06T21:06:31.277Z,27.55
2023-02-06T21:09:00.257Z,24.67
2023-02-06T21:11:30.716Z,26.58
2023-02-06T21:13:59.901Z,29.85
2023-02-06T21:16:28.181Z,29.75
2023-02-06T21:18:55.591Z,26.73
2023-02-06T21:21:22.225Z,27.98
2023-02-06T21:23:48.992Z,46.33
2023-02-06T21:26:17.914Z,26.38
2023-02-06T21:28:46.285Z,31.00
2023-02-06T21:31:16.103Z,27.27
2023-02-06T21:33:43.041Z,28.55
2023-02-06T21:36:09.758Z,37.53
2023-02-06T21:38:37.101Z,29.77
2023-02-06T21:41:06.435Z,43.88
2023-02-06T21:43:33.732Z,31.08
2023-02-06T21:46:00.992Z,34.65
2023-02-06T21:48:27.793Z,39.65
2023-02-06T21:50:54.522Z,40.65
2023-02-06T21:53:21.841Z,28.13
2023-02-06T21:55:48.764Z,36.55
2023-02-06T21:58:15.918Z,37.47
2023-02-06T22:00:44.621Z,31.23
2023-02-06T22:03:12.739Z,35.28
2023-02-06T22:05:40.271Z,34.13
2023-02-06T22:08:06.994Z,36.53
2023-02-06T22:10:36.938Z,35.35
2023-02-06T22:13:05.278Z,38.55
2023-02-06T22:15:32.980Z,38.33
2023-02-06T22:17:59.887Z,41.40
2023-02-06T22:20:26.707Z,40.33
2023-02-06T22:22:54.997Z,41.13
2023-02-06T22:25:21.712Z,35.35
2023-02-06T22:27:48.345Z,35.33
2023-02-06T22:30:15.047Z,28.10
2023-02-06T22:32:41.703Z,31.42
2023-02-06T22:35:08.854Z,30.75
2023-02-06T22:37:35.748Z,33.55
2023-02-06T22:40:02.401Z,33.75
2023-02-06T22:42:29.143Z,37.05
2023-02-06T22:44:55.859Z,32.97
2023-02-06T22:47:22.533Z,30.83
2023-02-06T22:49:51.543Z,31.20
2023-02-06T22:52:54.055Z,34.90
2023-02-06T22:55:20.722Z,30.63
2023-02-06T22:57:47.416Z,32.60
2023-02-06T23:00:16.652Z,26.20
2023-02-06T23:02:43.843Z,32.10
2023-02-06T23:05:10.691Z,29.73
2023-02-06T23:07:37.303Z,32.80
2023-02-06T23:10:04.859Z,28.35
2023-02-06T23:12:31.860Z,31.23
2023-02-06T23:14:58.584Z,35.25
2023-02-06T23:17:25.237Z,27.90
2023-02-06T23:19:51.917Z,35.72
2023-02-06T23:22:18.560Z,35.15
2023-02-06T23:24:45.241Z,26.08
2023-02-06T23:27:11.925Z,29.27
2023-02-06T23:29:38.670Z,22.80
2023-02-06T23:32:05.477Z,28.00
2023-02-06T23:34:32.148Z,27.65
2023-02-06T23:36:58.787Z,32.40
2023-02-06T23:39:25.442Z,22.77
2023-02-06T23:41:52.083Z,26.92
2023-02-06T23:44:18.973Z,23.05
2023-02-06T23:46:45.730Z,28.02
2023-02-06T23:49:12.383Z,28.67
2023-02-06T23:51:39.124Z,25.35
2023-02-06T23:54:07.565Z,25.60
2023-02-06T23:56:34.698Z,25.88
2023-02-06T23:59:02.708Z,23.38
